sensor_id;sensor_type;location;lat;lon;timestamp;P1;durP1;ratioP1;P2;durP2;ratioP2
27899;SDS011;15243;50.726;7.080;2022-11-20T00:01:24;48.63;;;25.75;;
27899;SDS011;15243;50.726;7.080;2022-11-20T00:03:53;46.35;;;23.98;;
27899;SDS011;15243;50.726;7.080;2022-11-20T00:06:21;51.42;;;26.33;;
27899;SDS011;15243;50.726;7.080;2022-11-20T00:08:49;51.95;;;26.80;;
27899;SDS011;15243;50.726;7.080;2022-11-20T00:11:17;48.63;;;25.75;;
27899;SDS011;15243;50.726;7.080;2022-11-20T00:13:49;47.22;;;25.73;;
27899;SDS011;15243;50.726;7.080;2022-11-20T00:16:18;55.55;;;27.30;;
27899;SDS011;15243;50.726;7.080;2022-11-20T00:18:47;53.28;;;28.52;;
27899;SDS011;15243;50.726;7.080;2022-11-20T00:21:22;55.58;;;28.17;;
27899;SDS011;15243;50.726;7.080;2022-11-20T00:23:53;54.45;;;27.45;;
27899;SDS011;15243;50.726;7.080;2022-11-20T00:26:22;52.03;;;26.52;;
27899;SDS011;15243;50.726;7.080;2022-11-20T00:28:51;50.20;;;26.05;;
27899;SDS011;15243;50.726;7.080;2022-11-20T00:31:19;52.65;;;25.50;;
27899;SDS011;15243;50.726;7.080;2022-11-20T00:33:47;53.83;;;27.55;;
27899;SDS011;15243;50.726;7.080;2022-11-20T00:36:15;56.85;;;27.75;;
27899;SDS011;15243;50.726;7.080;2022-11-20T00:38:47;54.47;;;27.73;;
27899;SDS011;15243;50.726;7.080;2022-11-20T00:41:20;52.83;;;27.60;;
27899;SDS011;15243;50.726;7.080;2022-11-20T00:43:48;51.90;;;26.80;;
27899;SDS011;15243;50.726;7.080;2022-11-20T00:46:16;53.40;;;26.98;;
27899;SDS011;15243;50.726;7.080;2022-11-20T00:48:45;53.20;;;27.90;;
27899;SDS011;15243;50.726;7.080;2022-11-20T00:51:13;55.97;;;27.33;;
27899;SDS011;15243;50.726;7.080;2022-11-20T00:53:40;54.47;;;28.20;;
27899;SDS011;15243;50.726;7.080;2022-11-20T00:56:09;53.65;;;28.08;;
27899;SDS011;15243;50.726;7.080;2022-11-20T00:58:38;58.83;;;30.05;;
27899;SDS011;15243;50.726;7.080;2022-11-20T01:01:15;57.90;;;28.58;;
27899;SDS011;15243;50.726;7.080;2022-11-20T01:03:55;54.00;;;27.23;;
27899;SDS011;15243;50.726;7.080;2022-11-20T01:06:25;57.42;;;28.33;;
27899;SDS011;15243;50.726;7.080;2022-11-20T01:08:54;54.05;;;28.02;;
27899;SDS011;15243;50.726;7.080;2022-11-20T01:11:24;56.13;;;27.52;;
27899;SDS011;15243;50.726;7.080;2022-11-20T01:13:55;63.35;;;30.08;;
27899;SDS011;15243;50.726;7.080;2022-11-20T01:19:01;64.05;;;29.13;;
27899;SDS011;15243;50.726;7.080;2022-11-20T01:21:31;58.22;;;28.75;;
27899;SDS011;15243;50.726;7.080;2022-11-20T01:23:59;56.40;;;28.40;;
27899;SDS011;15243;50.726;7.080;2022-11-20T01:26:27;54.75;;;26.85;;
27899;SDS011;15243;50.726;7.080;2022-11-20T01:28:57;63.15;;;30.35;;
27899;SDS011;15243;50.726;7.080;2022-11-20T01:31:34;52.45;;;26.30;;
27899;SDS011;15243;50.726;7.080;2022-11-20T01:34:03;53.65;;;27.33;;
27899;SDS011;15243;50.726;7.080;2022-11-20T01:36:32;51.90;;;27.17;;
27899;SDS011;15243;50.726;7.080;2022-11-20T01:39:02;51.85;;;26.75;;
27899;SDS011;15243;50.726;7.080;2022-11-20T01:41:32;53.15;;;26.50;;
27899;SDS011;15243;50.726;7.080;2022-11-20T01:44:22;52.80;;;27.17;;
27899;SDS011;15243;50.726;7.080;2022-11-20T01:47:09;54.00;;;26.80;;
27899;SDS011;15243;50.726;7.080;2022-11-20T01:49:41;54.65;;;27.10;;
27899;SDS011;15243;50.726;7.080;2022-11-20T01:52:16;53.20;;;26.77;;
27899;SDS011;15243;50.726;7.080;2022-11-20T01:54:57;46.80;;;25.63;;
27899;SDS011;15243;50.726;7.080;2022-11-20T01:57:29;48.08;;;25.95;;
27899;SDS011;15243;50.726;7.080;2022-11-20T02:00:00;46.40;;;24.15;;
27899;SDS011;15243;50.726;7.080;2022-11-20T02:02:31;50.13;;;26.45;;
27899;SDS011;15243;50.726;7.080;2022-11-20T02:05:00;55.35;;;26.42;;
27899;SDS011;15243;50.726;7.080;2022-11-20T02:07:36;50.03;;;25.85;;
27899;SDS011;15243;50.726;7.080;2022-11-20T02:10:04;46.70;;;24.90;;
27899;SDS011;15243;50.726;7.080;2022-11-20T02:12:31;50.08;;;26.15;;
27899;SDS011;15243;50.726;7.080;2022-11-20T02:15:16;52.03;;;27.17;;
27899;SDS011;15243;50.726;7.080;2022-11-20T02:17:43;51.10;;;25.85;;
27899;SDS011;15243;50.726;7.080;2022-11-20T02:20:10;57.13;;;28.10;;
27899;SDS011;15243;50.726;7.080;2022-11-20T02:22:59;57.25;;;29.02;;
27899;SDS011;15243;50.726;7.080;2022-11-20T02:25:48;52.30;;;26.95;;
27899;SDS011;15243;50.726;7.080;2022-11-20T02:28:17;53.38;;;27.08;;
27899;SDS011;15243;50.726;7.080;2022-11-20T02:30:44;58.10;;;29.27;;
27899;SDS011;15243;50.726;7.080;2022-11-20T02:33:12;52.75;;;28.27;;
27899;SDS011;15243;50.726;7.080;2022-11-20T02:35:39;53.13;;;26.58;;
27899;SDS011;15243;50.726;7.080;2022-11-20T02:38:08;48.47;;;25.88;;
27899;SDS011;15243;50.726;7.080;2022-11-20T02:40:36;52.22;;;26.58;;
27899;SDS011;15243;50.726;7.080;2022-11-20T02:43:02;53.00;;;27.50;;
27899;SDS011;15243;50.726;7.080;2022-11-20T02:45:29;54.83;;;27.50;;
27899;SDS011;15243;50.726;7.080;2022-11-20T02:47:56;50.38;;;26.65;;
27899;SDS011;15243;50.726;7.080;2022-11-20T02:50:23;51.13;;;25.77;;
27899;SDS011;15243;50.726;7.080;2022-11-20T02:52:50;52.92;;;27.23;;
27899;SDS011;15243;50.726;7.080;2022-11-20T02:55:16;47.55;;;25.50;;
27899;SDS011;15243;50.726;7.080;2022-11-20T02:57:43;51.42;;;26.90;;
27899;SDS011;15243;50.726;7.080;2022-11-20T03:00:10;50.95;;;27.05;;
27899;SDS011;15243;50.726;7.080;2022-11-20T03:02:37;56.70;;;26.85;;
27899;SDS011;15243;50.726;7.080;2022-11-20T03:05:04;53.25;;;27.35;;
27899;SDS011;15243;50.726;7.080;2022-11-20T03:07:31;50.90;;;25.63;;
27899;SDS011;15243;50.726;7.080;2022-11-20T03:09:58;49.58;;;25.77;;
27899;SDS011;15243;50.726;7.080;2022-11-20T03:12:25;50.72;;;26.25;;
27899;SDS011;15243;50.726;7.080;2022-11-20T03:14:51;50.90;;;26.77;;
27899;SDS011;15243;50.726;7.080;2022-11-20T03:17:18;54.22;;;26.52;;
27899;SDS011;15243;50.726;7.080;2022-11-20T03:19:45;52.03;;;26.60;;
27899;SDS011;15243;50.726;7.080;2022-11-20T03:22:12;52.38;;;26.60;;
27899;SDS011;15243;50.726;7.080;2022-11-20T03:24:39;56.97;;;27.67;;
27899;SDS011;15243;50.726;7.080;2022-11-20T03:27:05;58.05;;;27.20;;
27899;SDS011;15243;50.726;7.080;2022-11-20T03:29:32;58.33;;;28.90;;
27899;SDS011;15243;50.726;7.080;2022-11-20T03:32:00;55.88;;;26.52;;
27899;SDS011;15243;50.726;7.080;2022-11-20T03:34:27;60.80;;;28.38;;
27899;SDS011;15243;50.726;7.080;2022-11-20T03:36:54;63.25;;;29.23;;
27899;SDS011;15243;50.726;7.080;2022-11-20T03:39:20;65.45;;;30.25;;
27899;SDS011;15243;50.726;7.080;2022-11-20T03:41:48;64.13;;;30.67;;
27899;SDS011;15243;50.726;7.080;2022-11-20T03:44:14;70.60;;;30.27;;
27899;SDS011;15243;50.726;7.080;2022-11-20T03:46:41;62.80;;;29.77;;
27899;SDS011;15243;50.726;7.080;2022-11-20T03:49:08;59.10;;;28.02;;
27899;SDS011;15243;50.726;7.080;2022-11-20T03:51:35;65.18;;;28.33;;
27899;SDS011;15243;50.726;7.080;2022-11-20T03:54:03;63.85;;;28.90;;
27899;SDS011;15243;50.726;7.080;2022-11-20T03:56:32;67.75;;;30.17;;
27899;SDS011;15243;50.726;7.080;2022-11-20T03:59:01;58.55;;;27.83;;
27899;SDS011;15243;50.726;7.080;2022-11-20T04:01:32;61.90;;;28.10;;
27899;SDS011;15243;50.726;7.080;2022-11-20T04:04:00;61.25;;;29.15;;
27899;SDS011;15243;50.726;7.080;2022-11-20T04:06:29;62.05;;;27.60;;
27899;SDS011;15243;50.726;7.080;2022-11-20T04:08:59;64.35;;;28.00;;
27899;SDS011;15243;50.726;7.080;2022-11-20T04:11:27;63.35;;;28.85;;
27899;SDS011;15243;50.726;7.080;2022-11-20T04:14:00;62.13;;;29.83;;
27899;SDS011;15243;50.726;7.080;2022-11-20T04:16:29;59.90;;;27.15;;
27899;SDS011;15243;50.726;7.080;2022-11-20T04:18:58;64.95;;;29.05;;
27899;SDS011;15243;50.726;7.080;2022-11-20T04:21:26;66.68;;;29.92;;
27899;SDS011;15243;50.726;7.080;2022-11-20T04:23:53;66.63;;;29.58;;
27899;SDS011;15243;50.726;7.080;2022-11-20T04:26:21;62.47;;;27.65;;
27899;SDS011;15243;50.726;7.080;2022-11-20T04:28:49;61.47;;;28.17;;
27899;SDS011;15243;50.726;7.080;2022-11-20T04:31:17;63.97;;;27.98;;
27899;SDS011;15243;50.726;7.080;2022-11-20T04:33:45;65.22;;;28.33;;
27899;SDS011;15243;50.726;7.080;2022-11-20T04:36:13;65.05;;;28.52;;
27899;SDS011;15243;50.726;7.080;2022-11-20T04:38:41;63.85;;;28.70;;
27899;SDS011;15243;50.726;7.080;2022-11-20T04:41:11;60.65;;;28.15;;
27899;SDS011;15243;50.726;7.080;2022-11-20T04:43:46;61.88;;;27.13;;
27899;SDS011;15243;50.726;7.080;2022-11-20T04:46:14;60.00;;;27.30;;
27899;SDS011;15243;50.726;7.080;2022-11-20T04:48:42;62.25;;;29.30;;
27899;SDS011;15243;50.726;7.080;2022-11-20T04:51:09;60.33;;;27.50;;
27899;SDS011;15243;50.726;7.080;2022-11-20T04:53:36;61.35;;;27.83;;
27899;SDS011;15243;50.726;7.080;2022-11-20T04:56:03;61.63;;;27.13;;
27899;SDS011;15243;50.726;7.080;2022-11-20T04:58:32;72.32;;;28.83;;
27899;SDS011;15243;50.726;7.080;2022-11-20T05:01:00;61.58;;;27.63;;
27899;SDS011;15243;50.726;7.080;2022-11-20T05:03:38;64.75;;;29.50;;
27899;SDS011;15243;50.726;7.080;2022-11-20T05:06:08;63.72;;;28.70;;
27899;SDS011;15243;50.726;7.080;2022-11-20T05:08:36;63.72;;;28.52;;
27899;SDS011;15243;50.726;7.080;2022-11-20T05:11:04;66.07;;;28.83;;
27899;SDS011;15243;50.726;7.080;2022-11-20T05:13:33;70.63;;;30.23;;
27899;SDS011;15243;50.726;7.080;2022-11-20T05:16:04;68.60;;;28.80;;
27899;SDS011;15243;50.726;7.080;2022-11-20T05:18:33;68.93;;;30.45;;
27899;SDS011;15243;50.726;7.080;2022-11-20T05:21:00;67.35;;;28.67;;
27899;SDS011;15243;50.726;7.080;2022-11-20T05:23:27;66.75;;;29.83;;
27899;SDS011;15243;50.726;7.080;2022-11-20T05:25:56;70.50;;;30.45;;
27899;SDS011;15243;50.726;7.080;2022-11-20T05:28:24;64.22;;;28.33;;
27899;SDS011;15243;50.726;7.080;2022-11-20T05:30:52;67.43;;;30.45;;
27899;SDS011;15243;50.726;7.080;2022-11-20T05:33:19;70.53;;;28.73;;
27899;SDS011;15243;50.726;7.080;2022-11-20T05:35:46;68.97;;;30.63;;
27899;SDS011;15243;50.726;7.080;2022-11-20T05:38:14;72.15;;;29.70;;
27899;SDS011;15243;50.726;7.080;2022-11-20T05:40:41;66.20;;;29.58;;
27899;SDS011;15243;50.726;7.080;2022-11-20T05:43:08;64.25;;;28.73;;
27899;SDS011;15243;50.726;7.080;2022-11-20T05:45:35;74.50;;;29.95;;
27899;SDS011;15243;50.726;7.080;2022-11-20T05:48:02;72.85;;;30.50;;
27899;SDS011;15243;50.726;7.080;2022-11-20T05:50:28;71.10;;;30.65;;
27899;SDS011;15243;50.726;7.080;2022-11-20T05:52:57;75.38;;;31.42;;
27899;SDS011;15243;50.726;7.080;2022-11-20T05:55:26;70.35;;;29.40;;
27899;SDS011;15243;50.726;7.080;2022-11-20T05:57:53;72.25;;;30.77;;
27899;SDS011;15243;50.726;7.080;2022-11-20T06:00:21;76.15;;;31.25;;
27899;SDS011;15243;50.726;7.080;2022-11-20T06:02:48;74.75;;;32.00;;
27899;SDS011;15243;50.726;7.080;2022-11-20T06:05:15;77.57;;;30.42;;
27899;SDS011;15243;50.726;7.080;2022-11-20T06:07:42;79.35;;;31.67;;
27899;SDS011;15243;50.726;7.080;2022-11-20T06:10:09;69.85;;;31.63;;
27899;SDS011;15243;50.726;7.080;2022-11-20T06:12:36;73.18;;;30.73;;
27899;SDS011;15243;50.726;7.080;2022-11-20T06:15:03;71.50;;;30.75;;
27899;SDS011;15243;50.726;7.080;2022-11-20T06:17:31;74.43;;;31.58;;
27899;SDS011;15243;50.726;7.080;2022-11-20T06:19:58;68.95;;;29.48;;
27899;SDS011;15243;50.726;7.080;2022-11-20T06:22:24;69.35;;;30.60;;
27899;SDS011;15243;50.726;7.080;2022-11-20T06:24:51;70.13;;;29.13;;
27899;SDS011;15243;50.726;7.080;2022-11-20T06:27:18;67.90;;;29.48;;
27899;SDS011;15243;50.726;7.080;2022-11-20T06:29:45;74.63;;;30.88;;
27899;SDS011;15243;50.726;7.080;2022-11-20T06:32:11;70.00;;;30.60;;
27899;SDS011;15243;50.726;7.080;2022-11-20T06:34:38;72.60;;;30.75;;
27899;SDS011;15243;50.726;7.080;2022-11-20T06:37:05;70.05;;;29.73;;
27899;SDS011;15243;50.726;7.080;2022-11-20T06:39:31;72.93;;;30.65;;
27899;SDS011;15243;50.726;7.080;2022-11-20T06:41:58;63.38;;;28.50;;
27899;SDS011;15243;50.726;7.080;2022-11-20T06:44:25;62.72;;;27.17;;
27899;SDS011;15243;50.726;7.080;2022-11-20T06:46:52;65.13;;;28.80;;
27899;SDS011;15243;50.726;7.080;2022-11-20T06:49:19;61.72;;;28.20;;
27899;SDS011;15243;50.726;7.080;2022-11-20T06:51:46;60.88;;;28.38;;
27899;SDS011;15243;50.726;7.080;2022-11-20T06:54:13;56.83;;;27.52;;
27899;SDS011;15243;50.726;7.080;2022-11-20T06:56:40;53.80;;;26.33;;
27899;SDS011;15243;50.726;7.080;2022-11-20T06:59:07;60.72;;;27.25;;
27899;SDS011;15243;50.726;7.080;2022-11-20T07:01:34;59.70;;;27.80;;
27899;SDS011;15243;50.726;7.080;2022-11-20T07:04:01;55.85;;;27.65;;
27899;SDS011;15243;50.726;7.080;2022-11-20T07:06:29;55.53;;;27.02;;
27899;SDS011;15243;50.726;7.080;2022-11-20T07:08:56;56.85;;;26.40;;
27899;SDS011;15243;50.726;7.080;2022-11-20T07:11:23;56.83;;;27.33;;
27899;SDS011;15243;50.726;7.080;2022-11-20T07:13:50;57.70;;;27.27;;
27899;SDS011;15243;50.726;7.080;2022-11-20T07:16:17;49.70;;;25.67;;
27899;SDS011;15243;50.726;7.080;2022-11-20T07:18:43;53.53;;;26.67;;
27899;SDS011;15243;50.726;7.080;2022-11-20T07:21:16;49.35;;;25.20;;
27899;SDS011;15243;50.726;7.080;2022-11-20T07:23:43;52.65;;;26.30;;
27899;SDS011;15243;50.726;7.080;2022-11-20T07:26:10;51.33;;;26.13;;
27899;SDS011;15243;50.726;7.080;2022-11-20T07:28:37;51.28;;;25.60;;
27899;SDS011;15243;50.726;7.080;2022-11-20T07:31:04;49.38;;;25.13;;
27899;SDS011;15243;50.726;7.080;2022-11-20T07:33:33;51.10;;;26.10;;
27899;SDS011;15243;50.726;7.080;2022-11-20T07:36:00;51.22;;;25.23;;
27899;SDS011;15243;50.726;7.080;2022-11-20T07:38:27;51.33;;;25.73;;
27899;SDS011;15243;50.726;7.080;2022-11-20T07:40:54;50.35;;;25.60;;
27899;SDS011;15243;50.726;7.080;2022-11-20T07:43:23;54.83;;;27.17;;
27899;SDS011;15243;50.726;7.080;2022-11-20T07:45:51;52.80;;;25.77;;
27899;SDS011;15243;50.726;7.080;2022-11-20T07:48:18;52.70;;;25.88;;
27899;SDS011;15243;50.726;7.080;2022-11-20T07:50:45;50.33;;;24.88;;
27899;SDS011;15243;50.726;7.080;2022-11-20T07:53:11;53.97;;;27.40;;
27899;SDS011;15243;50.726;7.080;2022-11-20T07:55:39;49.45;;;25.02;;
27899;SDS011;15243;50.726;7.080;2022-11-20T07:58:06;47.55;;;25.23;;
27899;SDS011;15243;50.726;7.080;2022-11-20T08:00:33;42.85;;;23.55;;
27899;SDS011;15243;50.726;7.080;2022-11-20T08:03:02;47.53;;;25.80;;
27899;SDS011;15243;50.726;7.080;2022-11-20T08:05:30;52.42;;;26.05;;
27899;SDS011;15243;50.726;7.080;2022-11-20T08:07:57;47.33;;;25.58;;
27899;SDS011;15243;50.726;7.080;2022-11-20T08:10:24;49.88;;;25.95;;
27899;SDS011;15243;50.726;7.080;2022-11-20T08:12:52;46.78;;;24.83;;
27899;SDS011;15243;50.726;7.080;2022-11-20T08:15:38;52.75;;;26.05;;
27899;SDS011;15243;50.726;7.080;2022-11-20T08:18:07;45.63;;;23.45;;
27899;SDS011;15243;50.726;7.080;2022-11-20T08:20:56;52.38;;;26.55;;
27899;SDS011;15243;50.726;7.080;2022-11-20T08:23:23;54.47;;;26.83;;
27899;SDS011;15243;50.726;7.080;2022-11-20T08:25:50;49.38;;;24.85;;
27899;SDS011;15243;50.726;7.080;2022-11-20T08:28:17;51.45;;;26.10;;
27899;SDS011;15243;50.726;7.080;2022-11-20T08:30:47;50.22;;;26.35;;
27899;SDS011;15243;50.726;7.080;2022-11-20T08:33:15;52.85;;;27.13;;
27899;SDS011;15243;50.726;7.080;2022-11-20T08:35:43;53.28;;;26.80;;
27899;SDS011;15243;50.726;7.080;2022-11-20T08:38:10;52.13;;;28.20;;
27899;SDS011;15243;50.726;7.080;2022-11-20T08:40:37;51.35;;;26.73;;
27899;SDS011;15243;50.726;7.080;2022-11-20T08:43:03;49.05;;;25.77;;
27899;SDS011;15243;50.726;7.080;2022-11-20T08:45:30;54.22;;;26.88;;
27899;SDS011;15243;50.726;7.080;2022-11-20T08:48:00;50.75;;;27.25;;
27899;SDS011;15243;50.726;7.080;2022-11-20T08:50:28;54.25;;;27.88;;
27899;SDS011;15243;50.726;7.080;2022-11-20T08:53:02;52.60;;;28.48;;
27899;SDS011;15243;50.726;7.080;2022-11-20T08:55:30;54.55;;;27.30;;
27899;SDS011;15243;50.726;7.080;2022-11-20T08:57:57;51.60;;;26.63;;
27899;SDS011;15243;50.726;7.080;2022-11-20T09:00:24;54.72;;;26.27;;
27899;SDS011;15243;50.726;7.080;2022-11-20T09:02:51;53.65;;;26.42;;
27899;SDS011;15243;50.726;7.080;2022-11-20T09:05:18;50.15;;;26.50;;
27899;SDS011;15243;50.726;7.080;2022-11-20T09:07:45;52.47;;;27.60;;
27899;SDS011;15243;50.726;7.080;2022-11-20T09:10:11;53.85;;;27.50;;
27899;SDS011;15243;50.726;7.080;2022-11-20T09:12:54;53.47;;;26.08;;
27899;SDS011;15243;50.726;7.080;2022-11-20T09:15:21;49.53;;;26.25;;
27899;SDS011;15243;50.726;7.080;2022-11-20T09:17:52;55.00;;;28.10;;
27899;SDS011;15243;50.726;7.080;2022-11-20T09:20:24;56.42;;;26.23;;
27899;SDS011;15243;50.726;7.080;2022-11-20T09:22:52;59.20;;;28.63;;
27899;SDS011;15243;50.726;7.080;2022-11-20T09:25:19;56.65;;;27.40;;
27899;SDS011;15243;50.726;7.080;2022-11-20T09:27:45;51.80;;;27.45;;
27899;SDS011;15243;50.726;7.080;2022-11-20T09:30:13;55.25;;;27.45;;
27899;SDS011;15243;50.726;7.080;2022-11-20T09:32:41;54.88;;;28.65;;
27899;SDS011;15243;50.726;7.080;2022-11-20T09:35:09;52.08;;;27.70;;
27899;SDS011;15243;50.726;7.080;2022-11-20T09:37:36;48.97;;;25.17;;
27899;SDS011;15243;50.726;7.080;2022-11-20T09:40:03;45.97;;;24.77;;
27899;SDS011;15243;50.726;7.080;2022-11-20T09:48:15;44.88;;;24.10;;
27899;SDS011;15243;50.726;7.080;2022-11-20T09:56:37;48.42;;;24.70;;
27899;SDS011;15243;50.726;7.080;2022-11-20T09:59:06;51.67;;;25.92;;
27899;SDS011;15243;50.726;7.080;2022-11-20T10:01:40;48.53;;;25.30;;
27899;SDS011;15243;50.726;7.080;2022-11-20T10:04:19;43.55;;;22.58;;
27899;SDS011;15243;50.726;7.080;2022-11-20T10:06:59;46.38;;;24.23;;
27899;SDS011;15243;50.726;7.080;2022-11-20T10:09:51;39.30;;;20.70;;
27899;SDS011;15243;50.726;7.080;2022-11-20T10:12:33;38.72;;;20.65;;
27899;SDS011;15243;50.726;7.080;2022-11-20T10:18:08;37.40;;;20.50;;
27899;SDS011;15243;50.726;7.080;2022-11-20T10:29:10;40.78;;;21.75;;
27899;SDS011;15243;50.726;7.080;2022-11-20T10:37:02;38.72;;;19.95;;
27899;SDS011;15243;50.726;7.080;2022-11-20T10:39:49;37.55;;;19.40;;
27899;SDS011;15243;50.726;7.080;2022-11-20T10:42:37;37.85;;;20.40;;
27899;SDS011;15243;50.726;7.080;2022-11-20T10:47:54;39.90;;;21.15;;
27899;SDS011;15243;50.726;7.080;2022-11-20T10:50:38;40.15;;;20.95;;
27899;SDS011;15243;50.726;7.080;2022-11-20T10:56:03;38.05;;;19.08;;
27899;SDS011;15243;50.726;7.080;2022-11-20T11:01:41;38.20;;;19.80;;
27899;SDS011;15243;50.726;7.080;2022-11-20T11:04:17;40.03;;;20.40;;
27899;SDS011;15243;50.726;7.080;2022-11-20T11:06:53;36.83;;;19.63;;
27899;SDS011;15243;50.726;7.080;2022-11-20T11:09:28;36.35;;;19.23;;
27899;SDS011;15243;50.726;7.080;2022-11-20T11:12:00;34.53;;;18.35;;
27899;SDS011;15243;50.726;7.080;2022-11-20T11:14:41;39.42;;;19.83;;
27899;SDS011;15243;50.726;7.080;2022-11-20T11:17:17;37.47;;;19.70;;
27899;SDS011;15243;50.726;7.080;2022-11-20T11:19:56;35.67;;;19.17;;
27899;SDS011;15243;50.726;7.080;2022-11-20T11:22:54;38.28;;;19.88;;
27899;SDS011;15243;50.726;7.080;2022-11-20T11:25:24;37.08;;;19.58;;
27899;SDS011;15243;50.726;7.080;2022-11-20T11:30:44;37.07;;;19.60;;
27899;SDS011;15243;50.726;7.080;2022-11-20T11:33:17;34.55;;;19.38;;
27899;SDS011;15243;50.726;7.080;2022-11-20T11:35:47;38.38;;;19.63;;
27899;SDS011;15243;50.726;7.080;2022-11-20T11:38:22;39.15;;;20.23;;
27899;SDS011;15243;50.726;7.080;2022-11-20T11:40:53;38.10;;;18.75;;
27899;SDS011;15243;50.726;7.080;2022-11-20T11:43:26;38.40;;;19.88;;
27899;SDS011;15243;50.726;7.080;2022-11-20T11:46:26;38.63;;;19.87;;
27899;SDS011;15243;50.726;7.080;2022-11-20T11:49:37;41.38;;;19.45;;
27899;SDS011;15243;50.726;7.080;2022-11-20T11:56:52;43.05;;;23.60;;
27899;SDS011;15243;50.726;7.080;2022-11-20T11:59:27;43.88;;;22.33;;
27899;SDS011;15243;50.726;7.080;2022-11-20T12:02:13;46.03;;;23.73;;
27899;SDS011;15243;50.726;7.080;2022-11-20T12:04:54;50.72;;;24.63;;
27899;SDS011;15243;50.726;7.080;2022-11-20T12:10:22;42.42;;;21.88;;
27899;SDS011;15243;50.726;7.080;2022-11-20T12:12:58;42.70;;;22.55;;
27899;SDS011;15243;50.726;7.080;2022-11-20T12:15:31;45.78;;;23.88;;
27899;SDS011;15243;50.726;7.080;2022-11-20T12:18:00;42.17;;;22.67;;
27899;SDS011;15243;50.726;7.080;2022-11-20T12:20:32;44.88;;;21.73;;
27899;SDS011;15243;50.726;7.080;2022-11-20T12:23:09;38.90;;;21.58;;
27899;SDS011;15243;50.726;7.080;2022-11-20T12:25:37;38.53;;;20.75;;
27899;SDS011;15243;50.726;7.080;2022-11-20T12:30:55;40.45;;;20.95;;
27899;SDS011;15243;50.726;7.080;2022-11-20T12:42:02;44.13;;;21.08;;
27899;SDS011;15243;50.726;7.080;2022-11-20T12:57:09;55.33;;;27.10;;
27899;SDS011;15243;50.726;7.080;2022-11-20T13:05:37;38.97;;;19.92;;
27899;SDS011;15243;50.726;7.080;2022-11-20T13:08:24;41.22;;;21.33;;
27899;SDS011;15243;50.726;7.080;2022-11-20T13:11:16;38.55;;;22.25;;
27899;SDS011;15243;50.726;7.080;2022-11-20T13:13:54;40.97;;;22.15;;
27899;SDS011;15243;50.726;7.080;2022-11-20T13:19:10;38.30;;;20.38;;
27899;SDS011;15243;50.726;7.080;2022-11-20T13:21:40;43.40;;;21.02;;
27899;SDS011;15243;50.726;7.080;2022-11-20T13:26:46;39.25;;;20.60;;
27899;SDS011;15243;50.726;7.080;2022-11-20T13:29:16;38.20;;;20.00;;
27899;SDS011;15243;50.726;7.080;2022-11-20T13:31:45;36.28;;;19.50;;
27899;SDS011;15243;50.726;7.080;2022-11-20T13:34:20;35.60;;;19.15;;
27899;SDS011;15243;50.726;7.080;2022-11-20T13:36:55;38.88;;;20.27;;
27899;SDS011;15243;50.726;7.080;2022-11-20T13:39:28;37.42;;;20.30;;
27899;SDS011;15243;50.726;7.080;2022-11-20T13:42:18;33.22;;;18.92;;
27899;SDS011;15243;50.726;7.080;2022-11-20T13:44:53;34.70;;;18.42;;
27899;SDS011;15243;50.726;7.080;2022-11-20T13:49:52;36.58;;;19.35;;
27899;SDS011;15243;50.726;7.080;2022-11-20T13:52:27;32.03;;;18.20;;
27899;SDS011;15243;50.726;7.080;2022-11-20T13:58:05;29.98;;;16.58;;
27899;SDS011;15243;50.726;7.080;2022-11-20T14:01:00;31.02;;;17.63;;
27899;SDS011;15243;50.726;7.080;2022-11-20T14:03:34;34.85;;;19.40;;
27899;SDS011;15243;50.726;7.080;2022-11-20T14:08:51;36.45;;;18.10;;
27899;SDS011;15243;50.726;7.080;2022-11-20T14:11:21;35.78;;;19.42;;
27899;SDS011;15243;50.726;7.080;2022-11-20T14:13:58;34.58;;;18.70;;
27899;SDS011;15243;50.726;7.080;2022-11-20T14:16:39;31.50;;;17.48;;
27899;SDS011;15243;50.726;7.080;2022-11-20T14:22:22;34.00;;;17.98;;
27899;SDS011;15243;50.726;7.080;2022-11-20T14:24:45;34.72;;;17.02;;
27899;SDS011;15243;50.726;7.080;2022-11-20T14:27:17;31.25;;;17.58;;
27899;SDS011;15243;50.726;7.080;2022-11-20T14:29:46;31.83;;;17.58;;
27899;SDS011;15243;50.726;7.080;2022-11-20T14:32:15;26.83;;;16.27;;
27899;SDS011;15243;50.726;7.080;2022-11-20T14:34:46;29.90;;;17.33;;
27899;SDS011;15243;50.726;7.080;2022-11-20T14:37:20;31.00;;;17.58;;
27899;SDS011;15243;50.726;7.080;2022-11-20T14:39:50;31.90;;;17.75;;
27899;SDS011;15243;50.726;7.080;2022-11-20T14:42:20;35.03;;;17.73;;
27899;SDS011;15243;50.726;7.080;2022-11-20T14:44:49;33.78;;;16.83;;
27899;SDS011;15243;50.726;7.080;2022-11-20T14:47:18;33.78;;;17.58;;
27899;SDS011;15243;50.726;7.080;2022-11-20T14:49:48;32.38;;;16.70;;
27899;SDS011;15243;50.726;7.080;2022-11-20T14:52:17;32.20;;;17.13;;
27899;SDS011;15243;50.726;7.080;2022-11-20T14:57:24;32.13;;;17.30;;
27899;SDS011;15243;50.726;7.080;2022-11-20T15:02:46;27.98;;;14.30;;
27899;SDS011;15243;50.726;7.080;2022-11-20T15:05:14;26.23;;;14.98;;
27899;SDS011;15243;50.726;7.080;2022-11-20T15:07:44;24.83;;;13.82;;
27899;SDS011;15243;50.726;7.080;2022-11-20T15:10:24;24.55;;;12.63;;
27899;SDS011;15243;50.726;7.080;2022-11-20T15:12:53;25.27;;;11.23;;
27899;SDS011;15243;50.726;7.080;2022-11-20T15:18:11;24.58;;;11.45;;
27899;SDS011;15243;50.726;7.080;2022-11-20T15:20:39;26.30;;;12.50;;
27899;SDS011;15243;50.726;7.080;2022-11-20T15:23:11;22.77;;;12.10;;
27899;SDS011;15243;50.726;7.080;2022-11-20T15:25:40;22.23;;;11.40;;
27899;SDS011;15243;50.726;7.080;2022-11-20T15:28:13;21.90;;;11.02;;
27899;SDS011;15243;50.726;7.080;2022-11-20T15:30:47;15.85;;;8.98;;
27899;SDS011;15243;50.726;7.080;2022-11-20T15:33:15;14.85;;;7.57;;
27899;SDS011;15243;50.726;7.080;2022-11-20T15:35:43;14.40;;;6.32;;
27899;SDS011;15243;50.726;7.080;2022-11-20T15:38:11;12.57;;;6.38;;
27899;SDS011;15243;50.726;7.080;2022-11-20T15:40:37;13.95;;;5.43;;
27899;SDS011;15243;50.726;7.080;2022-11-20T15:43:04;8.80;;;4.65;;
27899;SDS011;15243;50.726;7.080;2022-11-20T15:45:40;10.73;;;4.47;;
27899;SDS011;15243;50.726;7.080;2022-11-20T15:48:12;11.40;;;5.25;;
27899;SDS011;15243;50.726;7.080;2022-11-20T15:53:27;9.57;;;4.15;;
27899;SDS011;15243;50.726;7.080;2022-11-20T15:55:54;9.20;;;4.85;;
27899;SDS011;15243;50.726;7.080;2022-11-20T15:58:21;7.03;;;4.00;;
27899;SDS011;15243;50.726;7.080;2022-11-20T16:00:49;6.43;;;3.92;;
27899;SDS011;15243;50.726;7.080;2022-11-20T16:03:16;8.20;;;4.93;;
27899;SDS011;15243;50.726;7.080;2022-11-20T16:05:44;9.15;;;4.78;;
27899;SDS011;15243;50.726;7.080;2022-11-20T16:08:11;11.57;;;5.43;;
27899;SDS011;15243;50.726;7.080;2022-11-20T16:10:38;11.45;;;5.88;;
27899;SDS011;15243;50.726;7.080;2022-11-20T16:13:09;14.57;;;6.57;;
27899;SDS011;15243;50.726;7.080;2022-11-20T16:15:57;15.25;;;9.23;;
27899;SDS011;15243;50.726;7.080;2022-11-20T16:18:25;19.50;;;11.00;;
27899;SDS011;15243;50.726;7.080;2022-11-20T16:20:53;18.83;;;10.55;;
27899;SDS011;15243;50.726;7.080;2022-11-20T16:23:21;21.70;;;8.55;;
27899;SDS011;15243;50.726;7.080;2022-11-20T16:25:48;21.05;;;8.75;;
27899;SDS011;15243;50.726;7.080;2022-11-20T16:28:15;18.65;;;9.35;;
27899;SDS011;15243;50.726;7.080;2022-11-20T16:30:44;21.35;;;11.27;;